sensor_id;sensor_type;location;lat;lon;timestamp;pressure;altitude;pressure_sealevel;temperature;humidity
25722;BME280;13578;53.450;15.496;2023-04-29T00:01:59;99323.72;;;9.11;100.00
25722;BME280;13578;53.450;15.496;2023-04-29T00:05:00;99302.09;;;9.08;100.00
25722;BME280;13578;53.450;15.496;2023-04-29T00:08:04;99308.88;;;9.14;100.00
25722;BME280;13578;53.450;15.496;2023-04-29T00:11:05;99292.03;;;9.09;100.00
25722;BME280;13578;53.450;15.496;2023-04-29T00:14:06;99302.09;;;9.18;100.00
25722;BME280;13578;53.450;15.496;2023-04-29T00:17:06;99299.50;;;9.16;100.00
25722;BME280;13578;53.450;15.496;2023-04-29T00:20:07;99288.56;;;9.26;100.00
25722;BME280;13578;53.450;15.496;2023-04-29T00:23:09;99287.56;;;9.17;100.00
25722;BME280;13578;53.450;15.496;2023-04-29T00:26:10;99289.00;;;9.21;100.00
25722;BME280;13578;53.450;15.496;2023-04-29T00:29:11;99283.66;;;9.20;100.00
25722;BME280;13578;53.450;15.496;2023-04-29T00:32:11;99273.44;;;9.22;100.00
25722;BME280;13578;53.450;15.496;2023-04-29T00:35:12;99270.44;;;9.35;100.00
25722;BME280;13578;53.450;15.496;2023-04-29T00:38:13;99282.81;;;9.29;100.00
25722;BME280;13578;53.450;15.496;2023-04-29T00:41:13;99285.13;;;9.24;100.00
25722;BME280;13578;53.450;15.496;2023-04-29T00:44:14;99288.41;;;9.18;100.00
25722;BME280;13578;53.450;15.496;2023-04-29T00:47:14;99290.59;;;9.24;100.00
25722;BME280;13578;53.450;15.496;2023-04-29T00:50:15;99284.81;;;9.37;100.00
25722;BME280;13578;53.450;15.496;2023-04-29T00:53:16;99274.28;;;9.22;100.00
25722;BME280;13578;53.450;15.496;2023-04-29T00:56:16;99280.81;;;9.31;100.00
25722;BME280;13578;53.450;15.496;2023-04-29T00:59:20;99271.88;;;9.29;100.00
25722;BME280;13578;53.450;15.496;2023-04-29T01:02:22;99272.56;;;9.21;100.00
25722;BME280;13578;53.450;15.496;2023-04-29T01:05:23;99264.66;;;9.18;100.00
25722;BME280;13578;53.450;15.496;2023-04-29T01:08:37;99272.44;;;9.23;100.00
25722;BME280;13578;53.450;15.496;2023-04-29T01:11:58;99281.81;;;9.20;100.00
25722;BME280;13578;53.450;15.496;2023-04-29T01:15:08;99278.34;;;9.09;100.00
25722;BME280;13578;53.450;15.496;2023-04-29T01:18:28;99276.75;;;9.16;100.00
25722;BME280;13578;53.450;15.496;2023-04-29T01:21:32;99262.06;;;9.17;100.00
25722;BME280;13578;53.450;15.496;2023-04-29T01:24:44;99259.59;;;9.14;100.00
25722;BME280;13578;53.450;15.496;2023-04-29T01:27:54;99264.34;;;9.12;100.00
25722;BME280;13578;53.450;15.496;2023-04-29T01:31:19;99258.28;;;9.18;100.00
25722;BME280;13578;53.450;15.496;2023-04-29T01:34:39;99255.44;;;9.19;100.00
25722;BME280;13578;53.450;15.496;2023-04-29T01:38:22;99256.72;;;9.15;100.00
25722;BME280;13578;53.450;15.496;2023-04-29T01:41:37;99256.72;;;9.15;100.00
25722;BME280;13578;53.450;15.496;2023-04-29T01:44:41;99249.38;;;9.16;100.00
25722;BME280;13578;53.450;15.496;2023-04-29T01:47:43;99247.78;;;9.13;100.00
25722;BME280;13578;53.450;15.496;2023-04-29T01:50:44;99253.13;;;9.15;100.00
25722;BME280;13578;53.450;15.496;2023-04-29T01:53:45;99247.78;;;9.13;100.00
25722;BME280;13578;53.450;15.496;2023-04-29T01:56:46;99239.28;;;9.06;100.00
25722;BME280;13578;53.450;15.496;2023-04-29T01:59:46;99241.00;;;9.08;100.00
25722;BME280;13578;53.450;15.496;2023-04-29T02:02:47;99234.13;;;9.23;100.00
25722;BME280;13578;53.450;15.496;2023-04-29T02:05:47;99240.16;;;9.17;100.00
25722;BME280;13578;53.450;15.496;2023-04-29T02:08:49;99221.69;;;9.09;100.00
25722;BME280;13578;53.450;15.496;2023-04-29T02:11:50;99234.22;;;9.21;100.00
25722;BME280;13578;53.450;15.496;2023-04-29T02:14:53;99238.69;;;9.13;100.00
25722;BME280;13578;53.450;15.496;2023-04-29T02:17:54;99236.69;;;9.05;100.00
25722;BME280;13578;53.450;15.496;2023-04-29T02:20:59;99236.53;;;9.16;100.00
25722;BME280;13578;53.450;15.496;2023-04-29T02:24:01;99237.69;;;9.14;100.00
25722;BME280;13578;53.450;15.496;2023-04-29T02:27:01;99239.13;;;8.98;100.00
25722;BME280;13578;53.450;15.496;2023-04-29T02:30:05;99238.84;;;9.01;100.00
25722;BME280;13578;53.450;15.496;2023-04-29T02:33:06;99233.78;;;8.97;100.00
25722;BME280;13578;53.450;15.496;2023-04-29T02:36:07;99237.97;;;8.91;100.00
25722;BME280;13578;53.450;15.496;2023-04-29T02:39:07;99238.69;;;8.83;100.00
25722;BME280;13578;53.450;15.496;2023-04-29T02:42:08;99239.09;;;8.79;100.00
25722;BME280;13578;53.450;15.496;2023-04-29T02:45:09;99234.63;;;8.78;100.00
25722;BME280;13578;53.450;15.496;2023-04-29T02:48:10;99244.41;;;8.70;100.00
25722;BME280;13578;53.450;15.496;2023-04-29T02:51:10;99233.59;;;8.59;100.00
25722;BME280;13578;53.450;15.496;2023-04-29T02:54:11;99238.06;;;8.70;100.00
25722;BME280;13578;53.450;15.496;2023-04-29T02:57:11;99230.56;;;8.62;100.00
25722;BME280;13578;53.450;15.496;2023-04-29T03:00:12;99220.59;;;8.61;100.00
25722;BME280;13578;53.450;15.496;2023-04-29T03:03:13;99218.34;;;8.66;100.00
25722;BME280;13578;53.450;15.496;2023-04-29T03:06:13;99213.88;;;8.65;100.00
25722;BME280;13578;53.450;15.496;2023-04-29T03:09:15;99219.63;;;8.72;100.00
25722;BME280;13578;53.450;15.496;2023-04-29T03:12:15;99219.22;;;8.77;100.00
25722;BME280;13578;53.450;15.496;2023-04-29T03:15:16;99213.88;;;8.75;100.00
25722;BME280;13578;53.450;15.496;2023-04-29T03:18:17;99200.91;;;8.67;100.00
25722;BME280;13578;53.450;15.496;2023-04-29T03:21:18;99213.00;;;8.74;100.00
25722;BME280;13578;53.450;15.496;2023-04-29T03:24:18;99207.53;;;8.74;100.00
25722;BME280;13578;53.450;15.496;2023-04-29T03:27:19;99217.75;;;8.63;100.00
25722;BME280;13578;53.450;15.496;2023-04-29T03:30:20;99223.66;;;8.68;100.00
25722;BME280;13578;53.450;15.496;2023-04-29T03:33:21;99219.34;;;8.65;100.00
25722;BME280;13578;53.450;15.496;2023-04-29T03:36:21;99211.84;;;8.67;100.00
25722;BME280;13578;53.450;15.496;2023-04-29T03:39:22;99203.22;;;8.72;100.00
25722;BME280;13578;53.450;15.496;2023-04-29T03:42:22;99209.84;;;8.69;100.00
25722;BME280;13578;53.450;15.496;2023-04-29T03:45:23;99206.38;;;8.67;100.00
25722;BME280;13578;53.450;15.496;2023-04-29T03:48:24;99217.78;;;8.82;100.00
25722;BME280;13578;53.450;15.496;2023-04-29T03:51:25;99208.00;;;8.80;100.00
25722;BME280;13578;53.450;15.496;2023-04-29T03:54:25;99205.25;;;8.80;100.00
25722;BME280;13578;53.450;15.496;2023-04-29T03:57:27;99204.22;;;8.71;100.00
25722;BME280;13578;53.450;15.496;2023-04-29T04:00:29;99207.69;;;8.73;100.00
25722;BME280;13578;53.450;15.496;2023-04-29T04:03:30;99206.25;;;8.69;100.00
25722;BME280;13578;53.450;15.496;2023-04-29T04:06:31;99204.66;;;8.66;100.00
25722;BME280;13578;53.450;15.496;2023-04-29T04:09:32;99202.63;;;8.68;100.00
25722;BME280;13578;53.450;15.496;2023-04-29T04:12:33;99217.34;;;8.77;100.00
25722;BME280;13578;53.450;15.496;2023-04-29T04:15:33;99221.09;;;8.76;100.00
25722;BME280;13578;53.450;15.496;2023-04-29T04:18:34;99227.00;;;8.81;100.00
25722;BME280;13578;53.450;15.496;2023-04-29T04:21:34;99226.41;;;8.78;100.00
25722;BME280;13578;53.450;15.496;2023-04-29T04:24:35;99221.50;;;8.71;100.00
25722;BME280;13578;53.450;15.496;2023-04-29T04:27:36;99232.63;;;8.80;100.00
25722;BME280;13578;53.450;15.496;2023-04-29T04:30:36;99236.03;;;8.72;100.00
25722;BME280;13578;53.450;15.496;2023-04-29T04:33:37;99225.41;;;8.69;100.00
25722;BME280;13578;53.450;15.496;2023-04-29T04:36:37;99242.66;;;8.69;100.00
25722;BME280;13578;53.450;15.496;2023-04-29T04:39:38;99237.50;;;8.66;100.00
25722;BME280;13578;53.450;15.496;2023-04-29T04:42:39;99242.97;;;8.66;100.00
25722;BME280;13578;53.450;15.496;2023-04-29T04:45:39;99244.53;;;8.59;100.00
25722;BME280;13578;53.450;15.496;2023-04-29T04:48:40;99236.91;;;8.63;100.00
25722;BME280;13578;53.450;15.496;2023-04-29T04:51:44;99236.59;;;8.56;100.00
25722;BME280;13578;53.450;15.496;2023-04-29T04:54:47;99220.44;;;8.53;100.00
25722;BME280;13578;53.450;15.496;2023-04-29T04:57:48;99224.19;;;8.52;100.00
25722;BME280;13578;53.450;15.496;2023-04-29T05:00:48;99224.69;;;8.36;100.00
25722;BME280;13578;53.450;15.496;2023-04-29T05:03:50;99220.22;;;8.35;100.00
25722;BME280;13578;53.450;15.496;2023-04-29T05:06:51;99223.66;;;8.27;100.00
25722;BME280;13578;53.450;15.496;2023-04-29T05:09:52;99221.75;;;8.27;100.00
25722;BME280;13578;53.450;15.496;2023-04-29T05:12:52;99224.19;;;8.21;100.00
25722;BME280;13578;53.450;15.496;2023-04-29T05:15:53;99219.41;;;8.13;100.00
25722;BME280;13578;53.450;15.496;2023-04-29T05:18:54;99210.50;;;8.11;100.00
25722;BME280;13578;53.450;15.496;2023-04-29T05:21:54;99224.63;;;8.26;100.00
25722;BME280;13578;53.450;15.496;2023-04-29T05:24:55;99222.44;;;8.10;100.00
25722;BME280;13578;53.450;15.496;2023-04-29T05:28:02;99220.09;;;8.05;100.00
25722;BME280;13578;53.450;15.496;2023-04-29T05:31:03;99213.59;;;7.97;100.00
25722;BME280;13578;53.450;15.496;2023-04-29T05:34:05;99214.00;;;7.92;100.00
25722;BME280;13578;53.450;15.496;2023-04-29T05:37:06;99228.09;;;7.97;100.00
25722;BME280;13578;53.450;15.496;2023-04-29T05:40:07;99218.34;;;8.04;100.00
25722;BME280;13578;53.450;15.496;2023-04-29T05:43:08;99224.69;;;8.05;100.00
25722;BME280;13578;53.450;15.496;2023-04-29T05:46:09;99219.69;;;8.10;100.00
25722;BME280;13578;53.450;15.496;2023-04-29T05:49:10;99220.53;;;8.10;100.00
25722;BME280;13578;53.450;15.496;2023-04-29T05:52:10;99229.47;;;8.13;100.00
25722;BME280;13578;53.450;15.496;2023-04-29T05:55:11;99226.16;;;8.09;100.00
25722;BME280;13578;53.450;15.496;2023-04-29T05:58:12;99234.06;;;8.12;100.00
25722;BME280;13578;53.450;15.496;2023-04-29T06:01:14;99237.28;;;8.17;100.00
25722;BME280;13578;53.450;15.496;2023-04-29T06:04:16;99234.50;;;8.07;100.00
25722;BME280;13578;53.450;15.496;2023-04-29T06:07:17;99223.84;;;7.83;100.00
25722;BME280;13578;53.450;15.496;2023-04-29T06:10:18;99234.84;;;7.93;100.00
25722;BME280;13578;53.450;15.496;2023-04-29T06:13:18;99229.09;;;7.96;100.00
25722;BME280;13578;53.450;15.496;2023-04-29T06:16:19;99242.84;;;7.85;100.00
25722;BME280;13578;53.450;15.496;2023-04-29T06:19:20;99228.16;;;7.86;100.00
25722;BME280;13578;53.450;15.496;2023-04-29T06:22:21;99218.28;;;7.85;100.00
25722;BME280;13578;53.450;15.496;2023-04-29T06:25:21;99236.19;;;7.77;100.00
25722;BME280;13578;53.450;15.496;2023-04-29T06:28:22;99227.31;;;7.85;100.00
25722;BME280;13578;53.450;15.496;2023-04-29T06:31:23;99226.91;;;7.90;100.00
25722;BME280;13578;53.450;15.496;2023-04-29T06:34:23;99231.59;;;7.78;100.00
25722;BME280;13578;53.450;15.496;2023-04-29T06:37:24;99232.25;;;7.91;100.00
25722;BME280;13578;53.450;15.496;2023-04-29T06:40:25;99229.47;;;7.82;100.00
25722;BME280;13578;53.450;15.496;2023-04-29T06:43:26;99228.31;;;7.84;100.00
25722;BME280;13578;53.450;15.496;2023-04-29T06:46:27;99224.72;;;7.84;100.00
25722;BME280;13578;53.450;15.496;2023-04-29T06:49:28;99220.06;;;7.74;100.00
25722;BME280;13578;53.450;15.496;2023-04-29T06:52:29;99222.06;;;7.72;100.00
25722;BME280;13578;53.450;15.496;2023-04-29T06:55:31;99218.47;;;7.72;100.00
25722;BME280;13578;53.450;15.496;2023-04-29T06:58:31;99221.81;;;7.75;100.00
25722;BME280;13578;53.450;15.496;2023-04-29T07:01:32;99218.38;;;7.83;100.00
25722;BME280;13578;53.450;15.496;2023-04-29T07:04:33;99217.25;;;7.86;100.00
25722;BME280;13578;53.450;15.496;2023-04-29T07:07:34;99219.97;;;7.86;100.00
25722;BME280;13578;53.450;15.496;2023-04-29T07:10:34;99216.59;;;7.93;100.00
25722;BME280;13578;53.450;15.496;2023-04-29T07:13:35;99218.13;;;7.86;100.00
25722;BME280;13578;53.450;15.496;2023-04-29T07:16:35;99224.38;;;7.98;100.00
25722;BME280;13578;53.450;15.496;2023-04-29T07:19:36;99221.25;;;8.03;100.00
25722;BME280;13578;53.450;15.496;2023-04-29T07:22:37;99221.25;;;8.03;100.00
25722;BME280;13578;53.450;15.496;2023-04-29T07:25:37;99225.56;;;8.05;100.00
25722;BME280;13578;53.450;15.496;2023-04-29T07:28:38;99227.75;;;8.11;100.00
25722;BME280;13578;53.450;15.496;2023-04-29T07:31:39;99227.16;;;8.08;100.00
25722;BME280;13578;53.450;15.496;2023-04-29T07:34:40;99225.19;;;8.20;100.00
25722;BME280;13578;53.450;15.496;2023-04-29T07:37:40;99227.19;;;8.18;100.00
25722;BME280;13578;53.450;15.496;2023-04-29T07:40:42;99225.63;;;8.25;100.00
25722;BME280;13578;53.450;15.496;2023-04-29T07:43:44;99234.88;;;8.34;100.00
25722;BME280;13578;53.450;15.496;2023-04-29T07:46:44;99234.19;;;8.41;100.00
25722;BME280;13578;53.450;15.496;2023-04-29T07:49:46;99238.38;;;8.46;100.00
25722;BME280;13578;53.450;15.496;2023-04-29T07:52:46;99235.94;;;8.42;100.00
25722;BME280;13578;53.450;15.496;2023-04-29T07:55:47;99227.59;;;8.44;100.00
25722;BME280;13578;53.450;15.496;2023-04-29T07:58:47;99240.59;;;8.52;100.00
25722;BME280;13578;53.450;15.496;2023-04-29T08:01:48;99239.19;;;8.67;100.00
25722;BME280;13578;53.450;15.496;2023-04-29T08:04:48;99230.00;;;8.68;100.00
25722;BME280;13578;53.450;15.496;2023-04-29T08:07:50;99236.34;;;8.79;100.00
25722;BME280;13578;53.450;15.496;2023-04-29T08:10:51;99241.00;;;8.88;100.00
25722;BME280;13578;53.450;15.496;2023-04-29T08:13:52;99238.69;;;8.93;100.00
25722;BME280;13578;53.450;15.496;2023-04-29T08:16:52;99249.34;;;8.96;100.00
25722;BME280;13578;53.450;15.496;2023-04-29T08:19:54;99245.31;;;9.00;100.00
25722;BME280;13578;53.450;15.496;2023-04-29T08:22:57;99250.38;;;9.05;100.00
25722;BME280;13578;53.450;15.496;2023-04-29T08:25:58;99247.66;;;9.15;100.00
25722;BME280;13578;53.450;15.496;2023-04-29T08:28:59;99249.38;;;9.06;100.00
25722;BME280;13578;53.450;15.496;2023-04-29T08:32:00;99236.28;;;9.10;100.00
25722;BME280;13578;53.450;15.496;2023-04-29T08:35:00;99248.06;;;9.10;100.00
25722;BME280;13578;53.450;15.496;2023-04-29T08:38:01;99237.13;;;9.10;100.00
25722;BME280;13578;53.450;15.496;2023-04-29T08:41:06;99247.34;;;9.08;100.00
25722;BME280;13578;53.450;15.496;2023-04-29T08:44:08;99234.81;;;9.05;100.00
25722;BME280;13578;53.450;15.496;2023-04-29T08:47:08;99241.00;;;9.08;100.00
25722;BME280;13578;53.450;15.496;2023-04-29T08:50:09;99235.53;;;9.08;100.00
25722;BME280;13578;53.450;15.496;2023-04-29T08:53:12;99241.44;;;9.22;100.00
25722;BME280;13578;53.450;15.496;2023-04-29T08:56:16;99242.75;;;9.18;100.00
25722;BME280;13578;53.450;15.496;2023-04-29T08:59:21;99243.75;;;9.17;100.00
25722;BME280;13578;53.450;15.496;2023-04-29T09:02:24;99250.53;;;9.33;100.00
25722;BME280;13578;53.450;15.496;2023-04-29T09:05:25;99239.00;;;9.49;100.00
25722;BME280;13578;53.450;15.496;2023-04-29T09:08:26;99239.84;;;9.59;100.00
25722;BME280;13578;53.450;15.496;2023-04-29T09:11:27;99249.63;;;9.81;100.00
25722;BME280;13578;53.450;15.496;2023-04-29T09:14:29;99244.41;;;9.98;100.00
25722;BME280;13578;53.450;15.496;2023-04-29T09:17:44;99244.72;;;9.95;100.00
25722;BME280;13578;53.450;15.496;2023-04-29T09:20:45;99251.03;;;10.05;100.00
25722;BME280;13578;53.450;15.496;2023-04-29T09:23:47;99255.06;;;10.11;100.00
25722;BME280;13578;53.450;15.496;2023-04-29T09:26:48;99250.28;;;10.13;100.00
25722;BME280;13578;53.450;15.496;2023-04-29T09:30:00;99245.22;;;10.18;100.00
25722;BME280;13578;53.450;15.496;2023-04-29T09:33:05;99257.25;;;10.45;100.00
25722;BME280;13578;53.450;15.496;2023-04-29T09:36:06;99259.66;;;10.58;100.00
25722;BME280;13578;53.450;15.496;2023-04-29T09:39:08;99268.19;;;10.55;100.00
25722;BME280;13578;53.450;15.496;2023-04-29T09:42:12;99264.19;;;10.49;100.00
25722;BME280;13578;53.450;15.496;2023-04-29T09:45:34;99272.31;;;10.41;100.00
25722;BME280;13578;53.450;15.496;2023-04-29T09:48:35;99290.47;;;10.52;100.00
25722;BME280;13578;53.450;15.496;2023-04-29T09:51:51;99291.31;;;10.52;100.00
25722;BME280;13578;53.450;15.496;2023-04-29T09:55:03;99297.56;;;10.35;100.00
25722;BME280;13578;53.450;15.496;2023-04-29T09:58:04;99300.31;;;10.35;100.00
25722;BME280;13578;53.450;15.496;2023-04-29T10:01:05;99295.41;;;10.38;100.00
25722;BME280;13578;53.450;15.496;2023-04-29T10:04:07;99289.44;;;10.53;100.00
25722;BME280;13578;53.450;15.496;2023-04-29T10:07:20;99304.41;;;10.58;100.00
25722;BME280;13578;53.450;15.496;2023-04-29T10:10:22;99304.97;;;10.62;100.00
25722;BME280;13578;53.450;15.496;2023-04-29T10:13:24;99306.81;;;10.43;100.00
25722;BME280;13578;53.450;15.496;2023-04-29T10:16:30;99304.06;;;10.43;100.00
25722;BME280;13578;53.450;15.496;2023-04-29T10:19:44;99312.69;;;10.48;100.00
25722;BME280;13578;53.450;15.496;2023-04-29T10:22:51;99316.31;;;10.49;100.00
25722;BME280;13578;53.450;15.496;2023-04-29T10:25:52;99311.28;;;10.44;100.00
25722;BME280;13578;53.450;15.496;2023-04-29T10:28:55;99317.50;;;10.37;100.00
25722;BME280;13578;53.450;15.496;2023-04-29T10:31:56;99315.19;;;10.42;100.00
25722;BME280;13578;53.450;15.496;2023-04-29T10:34:58;99310.72;;;10.41;100.00
25722;BME280;13578;53.450;15.496;2023-04-29T10:38:00;99311.28;;;10.44;100.00
25722;BME280;13578;53.450;15.496;2023-04-29T10:41:16;99320.22;;;10.37;100.00
25722;BME280;13578;53.450;15.496;2023-04-29T10:44:18;99322.53;;;10.31;100.00
25722;BME280;13578;53.450;15.496;2023-04-29T10:47:19;99311.88;;;10.18;100.00
25722;BME280;13578;53.450;15.496;2023-04-29T10:50:20;99320.38;;;10.25;100.00
25722;BME280;13578;53.450;15.496;2023-04-29T10:53:21;99318.50;;;10.26;100.00
25722;BME280;13578;53.450;15.496;2023-04-29T10:56:49;99329.19;;;10.39;100.00
25722;BME280;13578;53.450;15.496;2023-04-29T10:59:52;99329.75;;;10.42;100.00
25722;BME280;13578;53.450;15.496;2023-04-29T11:02:54;99325.44;;;10.40;100.00
25722;BME280;13578;53.450;15.496;2023-04-29T11:06:07;99326.72;;;10.45;100.00
25722;BME280;13578;53.450;15.496;2023-04-29T11:09:17;99331.03;;;10.48;100.00
25722;BME280;13578;53.450;15.496;2023-04-29T11:12:19;99317.63;;;10.45;100.00
25722;BME280;13578;53.450;15.496;2023-04-29T11:15:20;99324.22;;;10.52;100.00
25722;BME280;13578;53.450;15.496;2023-04-29T11:18:22;99323.63;;;10.58;100.00
25722;BME280;13578;53.450;15.496;2023-04-29T11:21:22;99328.06;;;10.69;100.00
25722;BME280;13578;53.450;15.496;2023-04-29T11:24:23;99331.38;;;10.73;100.00
25722;BME280;13578;53.450;15.496;2023-04-29T11:27:31;99341.91;;;10.77;100.00
25722;BME280;13578;53.450;15.496;2023-04-29T11:30:32;99346.78;;;10.84;100.00
25722;BME280;13578;53.450;15.496;2023-04-29T11:33:33;99347.34;;;10.87;100.00
25722;BME280;13578;53.450;15.496;2023-04-29T11:36:34;99346.31;;;10.88;100.00
25722;BME280;13578;53.450;15.496;2023-04-29T11:39:35;99348.63;;;10.93;100.00
25722;BME280;13578;53.450;15.496;2023-04-29T11:42:46;99361.19;;;10.95;100.00
25722;BME280;13578;53.450;15.496;2023-04-29T11:45:47;99371.16;;;10.96;100.00
25722;BME280;13578;53.450;15.496;2023-04-29T11:48:49;99377.19;;;11.00;100.00
25722;BME280;13578;53.450;15.496;2023-04-29T11:51:50;99380.41;;;10.95;100.00
25722;BME280;13578;53.450;15.496;2023-04-29T11:54:50;99392.88;;;10.90;100.00
25722;BME280;13578;53.450;15.496;2023-04-29T11:57:51;99387.31;;;10.72;100.00
25722;BME280;13578;53.450;15.496;2023-04-29T12:00:52;99387.88;;;10.65;100.00
25722;BME280;13578;53.450;15.496;2023-04-29T12:03:56;99385.13;;;10.65;100.00
25722;BME280;13578;53.450;15.496;2023-04-29T12:07:02;99386.25;;;10.73;100.00
25722;BME280;13578;53.450;15.496;2023-04-29T12:10:07;99386.16;;;10.64;100.00
25722;BME280;13578;53.450;15.496;2023-04-29T12:13:08;99394.09;;;10.68;100.00
25722;BME280;13578;53.450;15.496;2023-04-29T12:16:09;99401.03;;;10.72;100.00
25722;BME280;13578;53.450;15.496;2023-04-29T12:19:10;99400.75;;;10.65;100.00
25722;BME280;13578;53.450;15.496;2023-04-29T12:22:11;99403.47;;;10.65;100.00
25722;BME280;13578;53.450;15.496;2023-04-29T12:25:12;99392.22;;;10.58;100.00
25722;BME280;13578;53.450;15.496;2023-04-29T12:28:13;99408.81;;;10.67;100.00
25722;BME280;13578;53.450;15.496;2023-04-29T12:31:14;99411.59;;;10.57;100.00
25722;BME280;13578;53.450;15.496;2023-04-29T12:34:16;99413.47;;;10.56;100.00
25722;BME280;13578;53.450;15.496;2023-04-29T12:37:16;99403.38;;;10.47;100.00
25722;BME280;13578;53.450;15.496;2023-04-29T12:40:17;99403.38;;;10.47;100.00
25722;BME280;13578;53.450;15.496;2023-04-29T12:43:25;99407.41;;;10.43;100.00
25722;BME280;13578;53.450;15.496;2023-04-29T12:46:26;99403.41;;;10.37;100.00
25722;BME280;13578;53.450;15.496;2023-04-29T12:49:27;99410.16;;;10.43;100.00
25722;BME280;13578;53.450;15.496;2023-04-29T12:52:27;99418.69;;;10.40;100.00
25722;BME280;13578;53.450;15.496;2023-04-29T12:55:28;99414.34;;;10.27;100.00
25722;BME280;13578;53.450;15.496;2023-04-29T12:58:29;99425.03;;;10.21;100.00
25722;BME280;13578;53.450;15.496;2023-04-29T13:01:29;99411.03;;;10.04;100.00
25722;BME280;13578;53.450;15.496;2023-04-29T13:04:30;99412.63;;;10.07;100.00
25722;BME280;13578;53.450;15.496;2023-04-29T13:07:31;99404.53;;;10.05;100.00
25722;BME280;13578;53.450;15.496;2023-04-29T13:10:32;99404.84;;;10.02;100.00
25722;BME280;13578;53.450;15.496;2023-04-29T13:13:33;99399.03;;;10.15;100.00
25722;BME280;13578;53.450;15.496;2023-04-29T13:16:33;99410.91;;;10.15;100.00
25722;BME280;13578;53.450;15.496;2023-04-29T13:19:34;99409.16;;;10.14;100.00
25722;BME280;13578;53.450;15.496;2023-04-29T13:22:35;99411.75;;;10.16;100.00
25722;BME280;13578;53.450;15.496;2023-04-29T13:25:36;99409.00;;;10.16;100.00
25722;BME280;13578;53.450;15.496;2023-04-29T13:28:37;99407.28;;;10.15;100.00
25722;BME280;13578;53.450;15.496;2023-04-29T13:31:37;99422.56;;;10.17;100.00
25722;BME280;13578;53.450;15.496;2023-04-29T13:34:38;99418.56;;;10.12;100.00
25722;BME280;13578;53.450;15.496;2023-04-29T13:37:42;99421.00;;;10.05;100.00
25722;BME280;13578;53.450;15.496;2023-04-29T13:40:43;99424.16;;;10.00;100.00
25722;BME280;13578;53.450;15.496;2023-04-29T13:43:43;99438.59;;;9.93;100.00
25722;BME280;13578;53.450;15.496;2023-04-29T13:46:44;99423.84;;;9.84;100.00
25722;BME280;13578;53.450;15.496;2023-04-29T13:49:45;99430.38;;;9.83;100.00
25722;BME280;13578;53.450;15.496;2023-04-29T13:52:46;99429.34;;;9.84;100.00
25722;BME280;13578;53.450;15.496;2023-04-29T13:55:46;99429.06;;;9.87;100.00
25722;BME280;13578;53.450;15.496;2023-04-29T13:58:47;99440.75;;;9.89;100.00
25722;BME280;13578;53.450;15.496;2023-04-29T14:01:49;99433.22;;;9.81;100.00
25722;BME280;13578;53.450;15.496;2023-04-29T14:04:50;99436.28;;;9.88;100.00
25722;BME280;13578;53.450;15.496;2023-04-29T14:07:51;99444.06;;;9.83;100.00
25722;BME280;13578;53.450;15.496;2023-04-29T14:10:51;99433.38;;;9.80;100.00
25722;BME280;13578;53.450;15.496;2023-04-29T14:13:52;99438.88;;;9.80;100.00
25722;BME280;13578;53.450;15.496;2023-04-29T14:16:53;99449.56;;;9.83;100.00
25722;BME280;13578;53.450;15.496;2023-04-29T14:19:53;99450.25;;;9.85;100.00
25722;BME280;13578;53.450;15.496;2023-04-29T14:22:54;99446.09;;;9.81;100.00
25722;BME280;13578;53.450;15.496;2023-04-29T14:25:55;99458.94;;;9.90;100.00
25722;BME280;13578;53.450;15.496;2023-04-29T14:28:56;99470.03;;;9.89;100.00
25722;BME280;13578;53.450;15.496;2023-04-29T14:31:57;99464.25;;;9.82;100.00
25722;BME280;13578;53.450;15.496;2023-04-29T14:34:58;99476.03;;;9.53;100.00
25722;BME280;13578;53.450;15.496;2023-04-29T14:37:58;99477.41;;;9.37;100.00
25722;BME280;13578;53.450;15.496;2023-04-29T14:40:59;99501.25;;;9.16;100.00
25722;BME280;13578;53.450;15.496;2023-04-29T14:44:00;99496.91;;;9.13;100.00
25722;BME280;13578;53.450;15.496;2023-04-29T14:47:00;99505.97;;;9.14;100.00
25722;BME280;13578;53.450;15.496;2023-04-29T14:50:01;99503.78;;;9.08;100.00
25722;BME280;13578;53.450;15.496;2023-04-29T14:53:02;99508.34;;;8.97;100.00
25722;BME280;13578;53.450;15.496;2023-04-29T14:56:03;99514.34;;;8.91;100.00
25722;BME280;13578;53.450;15.496;2023-04-29T14:59:04;99522.03;;;8.97;100.00
25722;BME280;13578;53.450;15.496;2023-04-29T15:02:07;99513.50;;;8.90;100.00
25722;BME280;13578;53.450;15.496;2023-04-29T15:05:08;99511.34;;;8.94;100.00
25722;BME280;13578;53.450;15.496;2023-04-29T15:08:09;99511.16;;;8.86;100.00
25722;BME280;13578;53.450;15.496;2023-04-29T15:11:10;99515.50;;;8.88;100.00
25722;BME280;13578;53.450;15.496;2023-04-29T15:14:10;99526.28;;;8.90;100.00
25722;BME280;13578;53.450;15.496;2023-04-29T15:17:11;99529.38;;;8.97;100.00
25722;BME280;13578;53.450;15.496;2023-04-29T15:20:11;99536.06;;;9.04;100.00
25722;BME280;13578;53.450;15.496;2023-04-29T15:23:12;99545.31;;;9.13;100.00
25722;BME280;13578;53.450;15.496;2023-04-29T15:26:13;99542.38;;;9.04;100.00
25722;BME280;13578;53.450;15.496;2023-04-29T15:29:14;99549.03;;;9.12;100.00
25722;BME280;13578;53.450;15.496;2023-04-29T15:32:15;99550.78;;;9.13;100.00
25722;BME280;13578;53.450;15.496;2023-04-29T15:35:16;99560.34;;;9.18;100.00
25722;BME280;13578;53.450;15.496;2023-04-29T15:38:17;99559.19;;;9.21;100.00
25722;BME280;13578;53.450;15.496;2023-04-29T15:41:17;99559.44;;;9.18;100.00
25722;BME280;13578;53.450;15.496;2023-04-29T15:44:18;99572.69;;;9.13;100.00
25722;BME280;13578;53.450;15.496;2023-04-29T15:47:19;99577.16;;;9.14;100.00
25722;BME280;13578;53.450;15.496;2023-04-29T15:50:21;99578.44;;;9.10;100.00